sensor_id;sensor_type;location;lat;lon;timestamp;P1;durP1;ratioP1;P2;durP2;ratioP2
8407;SDS011;4241;48.452;9.216;2022-08-19T00:00:22;443.13;;;230.23;;
8407;SDS011;4241;48.452;9.216;2022-08-19T00:02:48;444.97;;;231.63;;
8407;SDS011;4241;48.452;9.216;2022-08-19T00:05:15;443.67;;;231.07;;
8407;SDS011;4241;48.452;9.216;2022-08-19T00:07:45;443.83;;;232.20;;
8407;SDS011;4241;48.452;9.216;2022-08-19T00:10:13;442.90;;;230.43;;
8407;SDS011;4241;48.452;9.216;2022-08-19T00:12:41;445.23;;;236.47;;
8407;SDS011;4241;48.452;9.216;2022-08-19T00:15:10;441.50;;;226.63;;
8407;SDS011;4241;48.452;9.216;2022-08-19T00:17:39;445.13;;;235.93;;
8407;SDS011;4241;48.452;9.216;2022-08-19T00:20:08;444.40;;;233.63;;
8407;SDS011;4241;48.452;9.216;2022-08-19T00:22:36;443.33;;;234.17;;
8407;SDS011;4241;48.452;9.216;2022-08-19T00:25:05;442.37;;;232.80;;
8407;SDS011;4241;48.452;9.216;2022-08-19T00:27:33;441.93;;;236.20;;
8407;SDS011;4241;48.452;9.216;2022-08-19T00:30:00;442.10;;;233.87;;
8407;SDS011;4241;48.452;9.216;2022-08-19T00:32:28;444.23;;;233.67;;
8407;SDS011;4241;48.452;9.216;2022-08-19T00:34:55;439.13;;;229.83;;
8407;SDS011;4241;48.452;9.216;2022-08-19T00:37:22;440.10;;;232.03;;
8407;SDS011;4241;48.452;9.216;2022-08-19T00:39:51;442.27;;;233.00;;
8407;SDS011;4241;48.452;9.216;2022-08-19T00:42:20;441.90;;;232.30;;
8407;SDS011;4241;48.452;9.216;2022-08-19T00:44:47;441.20;;;232.83;;
8407;SDS011;4241;48.452;9.216;2022-08-19T00:47:15;443.43;;;234.90;;
8407;SDS011;4241;48.452;9.216;2022-08-19T00:49:43;441.67;;;230.27;;
8407;SDS011;4241;48.452;9.216;2022-08-19T00:52:16;438.93;;;228.63;;
8407;SDS011;4241;48.452;9.216;2022-08-19T00:54:47;439.20;;;229.60;;
8407;SDS011;4241;48.452;9.216;2022-08-19T00:57:15;442.20;;;230.90;;
8407;SDS011;4241;48.452;9.216;2022-08-19T00:59:47;442.73;;;231.70;;
8407;SDS011;4241;48.452;9.216;2022-08-19T01:02:18;438.70;;;227.93;;
8407;SDS011;4241;48.452;9.216;2022-08-19T01:04:45;436.80;;;231.67;;
8407;SDS011;4241;48.452;9.216;2022-08-19T01:07:11;442.40;;;231.13;;
8407;SDS011;4241;48.452;9.216;2022-08-19T01:09:39;442.53;;;233.40;;
8407;SDS011;4241;48.452;9.216;2022-08-19T01:12:06;437.93;;;234.00;;
8407;SDS011;4241;48.452;9.216;2022-08-19T01:14:33;435.30;;;233.43;;
8407;SDS011;4241;48.452;9.216;2022-08-19T01:17:02;429.23;;;227.57;;
8407;SDS011;4241;48.452;9.216;2022-08-19T01:19:31;431.83;;;232.20;;
8407;SDS011;4241;48.452;9.216;2022-08-19T01:22:02;429.63;;;228.90;;
8407;SDS011;4241;48.452;9.216;2022-08-19T01:24:33;432.50;;;229.77;;
8407;SDS011;4241;48.452;9.216;2022-08-19T01:27:03;434.17;;;232.33;;
8407;SDS011;4241;48.452;9.216;2022-08-19T01:29:30;430.63;;;228.60;;
8407;SDS011;4241;48.452;9.216;2022-08-19T01:31:57;430.33;;;232.00;;
8407;SDS011;4241;48.452;9.216;2022-08-19T01:34:25;435.13;;;231.40;;
8407;SDS011;4241;48.452;9.216;2022-08-19T01:36:52;430.97;;;229.53;;
8407;SDS011;4241;48.452;9.216;2022-08-19T01:39:20;436.27;;;235.87;;
8407;SDS011;4241;48.452;9.216;2022-08-19T01:41:50;434.97;;;230.83;;
8407;SDS011;4241;48.452;9.216;2022-08-19T01:44:19;431.83;;;227.13;;
8407;SDS011;4241;48.452;9.216;2022-08-19T01:46:50;431.63;;;227.97;;
8407;SDS011;4241;48.452;9.216;2022-08-19T01:49:19;430.67;;;217.97;;
8407;SDS011;4241;48.452;9.216;2022-08-19T01:51:48;435.63;;;229.27;;
8407;SDS011;4241;48.452;9.216;2022-08-19T01:54:16;436.73;;;229.53;;
8407;SDS011;4241;48.452;9.216;2022-08-19T01:56:44;439.80;;;228.63;;
8407;SDS011;4241;48.452;9.216;2022-08-19T01:59:14;444.23;;;226.27;;
8407;SDS011;4241;48.452;9.216;2022-08-19T02:01:44;449.63;;;225.40;;
8407;SDS011;4241;48.452;9.216;2022-08-19T02:04:11;457.40;;;229.30;;
8407;SDS011;4241;48.452;9.216;2022-08-19T02:06:38;459.67;;;227.43;;
8407;SDS011;4241;48.452;9.216;2022-08-19T02:09:05;462.50;;;227.67;;
8407;SDS011;4241;48.452;9.216;2022-08-19T02:11:34;445.47;;;224.87;;
8407;SDS011;4241;48.452;9.216;2022-08-19T02:14:03;451.97;;;225.43;;
8407;SDS011;4241;48.452;9.216;2022-08-19T02:16:33;453.97;;;224.60;;
8407;SDS011;4241;48.452;9.216;2022-08-19T02:19:00;455.27;;;226.67;;
8407;SDS011;4241;48.452;9.216;2022-08-19T02:21:28;456.17;;;226.47;;
8407;SDS011;4241;48.452;9.216;2022-08-19T02:23:56;451.97;;;229.00;;
8407;SDS011;4241;48.452;9.216;2022-08-19T02:26:23;455.37;;;223.73;;
8407;SDS011;4241;48.452;9.216;2022-08-19T02:28:50;455.40;;;222.27;;
8407;SDS011;4241;48.452;9.216;2022-08-19T02:31:18;459.73;;;227.07;;
8407;SDS011;4241;48.452;9.216;2022-08-19T02:33:48;428.97;;;222.03;;
8407;SDS011;4241;48.452;9.216;2022-08-19T02:36:15;435.20;;;227.00;;
8407;SDS011;4241;48.452;9.216;2022-08-19T02:38:43;447.70;;;225.70;;
8407;SDS011;4241;48.452;9.216;2022-08-19T02:41:11;456.57;;;224.33;;
8407;SDS011;4241;48.452;9.216;2022-08-19T02:43:39;458.33;;;226.07;;
8407;SDS011;4241;48.452;9.216;2022-08-19T02:46:11;458.87;;;224.47;;
8407;SDS011;4241;48.452;9.216;2022-08-19T02:48:45;458.43;;;223.93;;
8407;SDS011;4241;48.452;9.216;2022-08-19T02:51:17;462.10;;;224.93;;
8407;SDS011;4241;48.452;9.216;2022-08-19T02:53:46;461.10;;;225.67;;
8407;SDS011;4241;48.452;9.216;2022-08-19T02:56:13;463.10;;;225.40;;
8407;SDS011;4241;48.452;9.216;2022-08-19T02:58:40;462.93;;;226.23;;
8407;SDS011;4241;48.452;9.216;2022-08-19T03:01:08;461.50;;;226.30;;
8407;SDS011;4241;48.452;9.216;2022-08-19T03:03:36;463.70;;;226.67;;
8407;SDS011;4241;48.452;9.216;2022-08-19T03:06:05;460.47;;;226.17;;
8407;SDS011;4241;48.452;9.216;2022-08-19T03:08:33;460.40;;;224.23;;
8407;SDS011;4241;48.452;9.216;2022-08-19T03:11:00;460.73;;;221.97;;
8407;SDS011;4241;48.452;9.216;2022-08-19T03:13:27;460.90;;;224.53;;
8407;SDS011;4241;48.452;9.216;2022-08-19T03:15:54;455.73;;;218.80;;
8407;SDS011;4241;48.452;9.216;2022-08-19T03:18:21;462.87;;;228.10;;
8407;SDS011;4241;48.452;9.216;2022-08-19T03:20:49;458.33;;;221.93;;
8407;SDS011;4241;48.452;9.216;2022-08-19T03:23:19;442.43;;;225.40;;
8407;SDS011;4241;48.452;9.216;2022-08-19T03:25:47;448.40;;;220.90;;
8407;SDS011;4241;48.452;9.216;2022-08-19T03:28:15;460.47;;;226.13;;
8407;SDS011;4241;48.452;9.216;2022-08-19T03:30:53;461.00;;;226.27;;
8407;SDS011;4241;48.452;9.216;2022-08-19T03:33:23;455.47;;;220.43;;
8407;SDS011;4241;48.452;9.216;2022-08-19T03:36:04;461.90;;;223.70;;
8407;SDS011;4241;48.452;9.216;2022-08-19T03:38:35;463.37;;;224.13;;
8407;SDS011;4241;48.452;9.216;2022-08-19T03:41:03;453.27;;;221.00;;
8407;SDS011;4241;48.452;9.216;2022-08-19T03:43:33;456.13;;;218.83;;
8407;SDS011;4241;48.452;9.216;2022-08-19T03:46:01;457.17;;;222.27;;
8407;SDS011;4241;48.452;9.216;2022-08-19T03:48:29;466.00;;;227.57;;
8407;SDS011;4241;48.452;9.216;2022-08-19T03:50:56;461.67;;;221.30;;
8407;SDS011;4241;48.452;9.216;2022-08-19T03:53:24;459.00;;;220.60;;
8407;SDS011;4241;48.452;9.216;2022-08-19T03:55:53;455.10;;;216.57;;
8407;SDS011;4241;48.452;9.216;2022-08-19T03:58:21;462.53;;;222.97;;
8407;SDS011;4241;48.452;9.216;2022-08-19T04:00:48;454.50;;;215.13;;
8407;SDS011;4241;48.452;9.216;2022-08-19T04:03:16;456.43;;;214.83;;
8407;SDS011;4241;48.452;9.216;2022-08-19T04:05:45;457.07;;;218.30;;
8407;SDS011;4241;48.452;9.216;2022-08-19T04:08:12;459.37;;;223.07;;
8407;SDS011;4241;48.452;9.216;2022-08-19T04:10:40;455.60;;;218.20;;
8407;SDS011;4241;48.452;9.216;2022-08-19T04:13:08;461.73;;;223.03;;
8407;SDS011;4241;48.452;9.216;2022-08-19T04:15:38;457.73;;;218.30;;
8407;SDS011;4241;48.452;9.216;2022-08-19T04:18:06;457.13;;;217.83;;
8407;SDS011;4241;48.452;9.216;2022-08-19T04:20:38;457.67;;;220.27;;
8407;SDS011;4241;48.452;9.216;2022-08-19T04:23:06;456.93;;;218.03;;
8407;SDS011;4241;48.452;9.216;2022-08-19T04:25:37;452.83;;;221.60;;
8407;SDS011;4241;48.452;9.216;2022-08-19T04:28:05;459.07;;;223.53;;
8407;SDS011;4241;48.452;9.216;2022-08-19T04:30:38;457.57;;;221.90;;
8407;SDS011;4241;48.452;9.216;2022-08-19T04:33:06;443.53;;;216.70;;
8407;SDS011;4241;48.452;9.216;2022-08-19T04:35:36;445.13;;;220.33;;
8407;SDS011;4241;48.452;9.216;2022-08-19T04:38:05;458.03;;;222.83;;
8407;SDS011;4241;48.452;9.216;2022-08-19T04:40:32;455.83;;;217.73;;
8407;SDS011;4241;48.452;9.216;2022-08-19T04:43:16;457.63;;;223.03;;
8407;SDS011;4241;48.452;9.216;2022-08-19T04:45:44;455.00;;;217.70;;
8407;SDS011;4241;48.452;9.216;2022-08-19T04:48:12;458.87;;;224.23;;
8407;SDS011;4241;48.452;9.216;2022-08-19T04:50:40;457.07;;;219.43;;
8407;SDS011;4241;48.452;9.216;2022-08-19T04:53:07;461.10;;;224.97;;
8407;SDS011;4241;48.452;9.216;2022-08-19T04:55:37;455.77;;;219.57;;
8407;SDS011;4241;48.452;9.216;2022-08-19T04:58:05;459.50;;;219.70;;
8407;SDS011;4241;48.452;9.216;2022-08-19T05:00:32;461.07;;;223.03;;
8407;SDS011;4241;48.452;9.216;2022-08-19T05:03:01;457.30;;;214.30;;
8407;SDS011;4241;48.452;9.216;2022-08-19T05:05:27;457.03;;;219.33;;
8407;SDS011;4241;48.452;9.216;2022-08-19T05:07:56;457.47;;;219.70;;
8407;SDS011;4241;48.452;9.216;2022-08-19T05:10:23;456.97;;;220.47;;
8407;SDS011;4241;48.452;9.216;2022-08-19T05:12:50;458.10;;;220.53;;
8407;SDS011;4241;48.452;9.216;2022-08-19T05:15:17;459.80;;;219.53;;
8407;SDS011;4241;48.452;9.216;2022-08-19T05:17:44;456.60;;;212.47;;
8407;SDS011;4241;48.452;9.216;2022-08-19T05:20:32;456.53;;;216.93;;
8407;SDS011;4241;48.452;9.216;2022-08-19T05:23:16;459.90;;;222.17;;
8407;SDS011;4241;48.452;9.216;2022-08-19T05:25:43;457.93;;;221.27;;
8407;SDS011;4241;48.452;9.216;2022-08-19T05:28:10;458.77;;;219.47;;
8407;SDS011;4241;48.452;9.216;2022-08-19T05:30:37;462.97;;;225.70;;
8407;SDS011;4241;48.452;9.216;2022-08-19T05:33:05;460.23;;;222.83;;
8407;SDS011;4241;48.452;9.216;2022-08-19T05:35:36;459.23;;;216.83;;
8407;SDS011;4241;48.452;9.216;2022-08-19T05:38:04;458.53;;;225.37;;
8407;SDS011;4241;48.452;9.216;2022-08-19T05:40:33;458.33;;;224.83;;
8407;SDS011;4241;48.452;9.216;2022-08-19T05:43:01;462.10;;;225.83;;
8407;SDS011;4241;48.452;9.216;2022-08-19T05:45:28;454.97;;;214.57;;
8407;SDS011;4241;48.452;9.216;2022-08-19T05:47:55;455.17;;;217.50;;
8407;SDS011;4241;48.452;9.216;2022-08-19T05:50:22;457.53;;;220.40;;
8407;SDS011;4241;48.452;9.216;2022-08-19T05:52:52;459.07;;;217.60;;
8407;SDS011;4241;48.452;9.216;2022-08-19T05:55:19;459.67;;;223.13;;
8407;SDS011;4241;48.452;9.216;2022-08-19T05:57:47;459.00;;;219.00;;
8407;SDS011;4241;48.452;9.216;2022-08-19T06:00:14;460.53;;;221.00;;
8407;SDS011;4241;48.452;9.216;2022-08-19T06:02:42;459.47;;;221.43;;
8407;SDS011;4241;48.452;9.216;2022-08-19T06:05:09;461.87;;;223.40;;
8407;SDS011;4241;48.452;9.216;2022-08-19T06:07:36;460.77;;;219.13;;
8407;SDS011;4241;48.452;9.216;2022-08-19T06:10:06;458.60;;;224.83;;
8407;SDS011;4241;48.452;9.216;2022-08-19T06:12:35;457.77;;;221.67;;
8407;SDS011;4241;48.452;9.216;2022-08-19T06:15:03;461.83;;;221.87;;
8407;SDS011;4241;48.452;9.216;2022-08-19T06:17:32;461.50;;;223.40;;
8407;SDS011;4241;48.452;9.216;2022-08-19T06:20:00;458.83;;;218.23;;
8407;SDS011;4241;48.452;9.216;2022-08-19T06:22:27;459.13;;;225.13;;
8407;SDS011;4241;48.452;9.216;2022-08-19T06:24:54;461.30;;;225.10;;
8407;SDS011;4241;48.452;9.216;2022-08-19T06:27:23;462.00;;;223.13;;
8407;SDS011;4241;48.452;9.216;2022-08-19T06:29:49;461.47;;;223.83;;
8407;SDS011;4241;48.452;9.216;2022-08-19T06:32:16;461.90;;;222.27;;
8407;SDS011;4241;48.452;9.216;2022-08-19T06:34:44;464.03;;;222.00;;
8407;SDS011;4241;48.452;9.216;2022-08-19T06:37:11;464.40;;;225.13;;
8407;SDS011;4241;48.452;9.216;2022-08-19T06:39:39;464.17;;;218.97;;
8407;SDS011;4241;48.452;9.216;2022-08-19T06:42:08;465.10;;;224.70;;
8407;SDS011;4241;48.452;9.216;2022-08-19T06:44:40;430.43;;;229.90;;
8407;SDS011;4241;48.452;9.216;2022-08-19T06:47:09;426.67;;;224.70;;
8407;SDS011;4241;48.452;9.216;2022-08-19T06:49:38;429.73;;;231.37;;
8407;SDS011;4241;48.452;9.216;2022-08-19T06:52:05;426.80;;;227.13;;
8407;SDS011;4241;48.452;9.216;2022-08-19T06:54:32;429.87;;;226.37;;
8407;SDS011;4241;48.452;9.216;2022-08-19T06:56:59;427.20;;;224.23;;
8407;SDS011;4241;48.452;9.216;2022-08-19T06:59:28;430.53;;;226.53;;
8407;SDS011;4241;48.452;9.216;2022-08-19T07:01:59;434.73;;;225.77;;
8407;SDS011;4241;48.452;9.216;2022-08-19T07:04:29;443.73;;;221.97;;
8407;SDS011;4241;48.452;9.216;2022-08-19T07:06:59;454.83;;;224.07;;
8407;SDS011;4241;48.452;9.216;2022-08-19T07:09:27;451.30;;;218.20;;
8407;SDS011;4241;48.452;9.216;2022-08-19T07:11:54;456.03;;;223.50;;
8407;SDS011;4241;48.452;9.216;2022-08-19T07:14:23;452.70;;;223.13;;
8407;SDS011;4241;48.452;9.216;2022-08-19T07:16:51;454.00;;;225.57;;
8407;SDS011;4241;48.452;9.216;2022-08-19T07:19:21;454.27;;;227.23;;
8407;SDS011;4241;48.452;9.216;2022-08-19T07:21:49;457.77;;;225.30;;
8407;SDS011;4241;48.452;9.216;2022-08-19T07:24:18;456.93;;;217.50;;
8407;SDS011;4241;48.452;9.216;2022-08-19T07:26:45;460.83;;;226.43;;
8407;SDS011;4241;48.452;9.216;2022-08-19T07:29:12;436.70;;;218.00;;
8407;SDS011;4241;48.452;9.216;2022-08-19T07:31:39;429.20;;;225.73;;
8407;SDS011;4241;48.452;9.216;2022-08-19T07:34:07;429.27;;;220.30;;
8407;SDS011;4241;48.452;9.216;2022-08-19T07:36:38;433.20;;;223.67;;
8407;SDS011;4241;48.452;9.216;2022-08-19T07:39:07;435.27;;;216.93;;
8407;SDS011;4241;48.452;9.216;2022-08-19T07:41:36;451.63;;;221.67;;
8407;SDS011;4241;48.452;9.216;2022-08-19T07:44:05;455.13;;;226.23;;
8407;SDS011;4241;48.452;9.216;2022-08-19T07:46:34;461.73;;;229.47;;
8407;SDS011;4241;48.452;9.216;2022-08-19T07:49:03;460.47;;;226.37;;
8407;SDS011;4241;48.452;9.216;2022-08-19T07:51:31;460.67;;;223.97;;
8407;SDS011;4241;48.452;9.216;2022-08-19T07:54:00;459.23;;;222.03;;
8407;SDS011;4241;48.452;9.216;2022-08-19T07:56:27;463.00;;;226.30;;
8407;SDS011;4241;48.452;9.216;2022-08-19T07:58:54;462.60;;;225.70;;
8407;SDS011;4241;48.452;9.216;2022-08-19T08:01:22;461.30;;;226.70;;
8407;SDS011;4241;48.452;9.216;2022-08-19T08:03:51;457.47;;;218.20;;
8407;SDS011;4241;48.452;9.216;2022-08-19T08:06:37;461.83;;;230.00;;
8407;SDS011;4241;48.452;9.216;2022-08-19T08:09:24;461.23;;;224.73;;
8407;SDS011;4241;48.452;9.216;2022-08-19T08:11:54;459.53;;;220.60;;
8407;SDS011;4241;48.452;9.216;2022-08-19T08:14:27;460.70;;;225.13;;
8407;SDS011;4241;48.452;9.216;2022-08-19T08:16:57;461.90;;;226.97;;
8407;SDS011;4241;48.452;9.216;2022-08-19T08:19:25;463.77;;;227.37;;
8407;SDS011;4241;48.452;9.216;2022-08-19T08:21:56;463.37;;;224.63;;
8407;SDS011;4241;48.452;9.216;2022-08-19T08:24:27;461.77;;;223.77;;
8407;SDS011;4241;48.452;9.216;2022-08-19T08:26:56;460.27;;;222.37;;
8407;SDS011;4241;48.452;9.216;2022-08-19T08:29:25;461.40;;;222.00;;
8407;SDS011;4241;48.452;9.216;2022-08-19T08:31:54;458.67;;;218.93;;
8407;SDS011;4241;48.452;9.216;2022-08-19T08:34:21;458.07;;;221.60;;
8407;SDS011;4241;48.452;9.216;2022-08-19T08:36:48;459.63;;;223.77;;
8407;SDS011;4241;48.452;9.216;2022-08-19T08:39:17;461.30;;;226.10;;
8407;SDS011;4241;48.452;9.216;2022-08-19T08:41:49;457.83;;;221.67;;
8407;SDS011;4241;48.452;9.216;2022-08-19T08:44:23;456.23;;;224.03;;
8407;SDS011;4241;48.452;9.216;2022-08-19T08:47:01;461.83;;;218.30;;
8407;SDS011;4241;48.452;9.216;2022-08-19T08:49:39;462.27;;;222.93;;
8407;SDS011;4241;48.452;9.216;2022-08-19T08:52:13;428.13;;;219.53;;
8407;SDS011;4241;48.452;9.216;2022-08-19T08:54:45;450.07;;;222.13;;
8407;SDS011;4241;48.452;9.216;2022-08-19T09:00:03;456.80;;;220.53;;
8407;SDS011;4241;48.452;9.216;2022-08-19T09:02:33;457.17;;;220.77;;
8407;SDS011;4241;48.452;9.216;2022-08-19T09:04:59;457.23;;;221.90;;
8407;SDS011;4241;48.452;9.216;2022-08-19T09:07:30;457.07;;;224.53;;
8407;SDS011;4241;48.452;9.216;2022-08-19T09:10:08;461.73;;;226.77;;
8407;SDS011;4241;48.452;9.216;2022-08-19T09:12:53;455.57;;;223.13;;
8407;SDS011;4241;48.452;9.216;2022-08-19T09:15:28;457.10;;;225.50;;
8407;SDS011;4241;48.452;9.216;2022-08-19T09:18:00;455.90;;;223.10;;
8407;SDS011;4241;48.452;9.216;2022-08-19T09:20:28;456.27;;;222.57;;
8407;SDS011;4241;48.452;9.216;2022-08-19T09:22:56;459.97;;;227.00;;
8407;SDS011;4241;48.452;9.216;2022-08-19T09:25:23;465.90;;;230.03;;
8407;SDS011;4241;48.452;9.216;2022-08-19T09:27:52;434.43;;;222.93;;
8407;SDS011;4241;48.452;9.216;2022-08-19T09:30:22;436.17;;;227.63;;
8407;SDS011;4241;48.452;9.216;2022-08-19T09:32:50;438.83;;;226.93;;
8407;SDS011;4241;48.452;9.216;2022-08-19T09:35:19;439.37;;;226.80;;
8407;SDS011;4241;48.452;9.216;2022-08-19T09:37:48;436.87;;;223.30;;
8407;SDS011;4241;48.452;9.216;2022-08-19T09:40:15;439.00;;;226.20;;
8407;SDS011;4241;48.452;9.216;2022-08-19T09:42:43;441.30;;;225.67;;
8407;SDS011;4241;48.452;9.216;2022-08-19T09:45:12;437.93;;;221.00;;
8407;SDS011;4241;48.452;9.216;2022-08-19T09:47:40;440.13;;;225.83;;
8407;SDS011;4241;48.452;9.216;2022-08-19T09:50:08;441.57;;;226.80;;
8407;SDS011;4241;48.452;9.216;2022-08-19T09:52:36;442.47;;;230.03;;
8407;SDS011;4241;48.452;9.216;2022-08-19T09:55:03;440.97;;;229.93;;
8407;SDS011;4241;48.452;9.216;2022-08-19T09:57:30;442.53;;;227.17;;
8407;SDS011;4241;48.452;9.216;2022-08-19T09:59:57;441.50;;;222.77;;
8407;SDS011;4241;48.452;9.216;2022-08-19T10:02:25;442.30;;;226.97;;
8407;SDS011;4241;48.452;9.216;2022-08-19T10:04:52;445.43;;;231.20;;
8407;SDS011;4241;48.452;9.216;2022-08-19T10:07:37;441.27;;;227.20;;
8407;SDS011;4241;48.452;9.216;2022-08-19T10:10:04;443.73;;;223.77;;
8407;SDS011;4241;48.452;9.216;2022-08-19T10:12:32;446.77;;;224.83;;
8407;SDS011;4241;48.452;9.216;2022-08-19T10:14:59;447.70;;;221.10;;
8407;SDS011;4241;48.452;9.216;2022-08-19T10:17:27;443.23;;;225.00;;
8407;SDS011;4241;48.452;9.216;2022-08-19T10:19:54;441.10;;;224.67;;
8407;SDS011;4241;48.452;9.216;2022-08-19T10:22:21;441.30;;;227.70;;
8407;SDS011;4241;48.452;9.216;2022-08-19T10:24:49;436.17;;;233.00;;
8407;SDS011;4241;48.452;9.216;2022-08-19T10:27:17;421.37;;;224.83;;
8407;SDS011;4241;48.452;9.216;2022-08-19T10:29:44;424.07;;;226.83;;
8407;SDS011;4241;48.452;9.216;2022-08-19T10:32:12;424.20;;;224.40;;
8407;SDS011;4241;48.452;9.216;2022-08-19T10:34:40;423.20;;;224.77;;
8407;SDS011;4241;48.452;9.216;2022-08-19T10:37:07;419.67;;;217.70;;
8407;SDS011;4241;48.452;9.216;2022-08-19T10:39:34;423.23;;;220.67;;
8407;SDS011;4241;48.452;9.216;2022-08-19T10:42:04;427.63;;;228.07;;
8407;SDS011;4241;48.452;9.216;2022-08-19T10:44:32;424.87;;;227.20;;
8407;SDS011;4241;48.452;9.216;2022-08-19T10:47:01;424.30;;;224.17;;
8407;SDS011;4241;48.452;9.216;2022-08-19T10:49:29;421.77;;;221.07;;
8407;SDS011;4241;48.452;9.216;2022-08-19T10:51:58;423.67;;;226.30;;
8407;SDS011;4241;48.452;9.216;2022-08-19T10:54:42;415.43;;;216.57;;
8407;SDS011;4241;48.452;9.216;2022-08-19T10:57:29;413.87;;;213.13;;
8407;SDS011;4241;48.452;9.216;2022-08-19T10:59:57;417.23;;;222.33;;
8407;SDS011;4241;48.452;9.216;2022-08-19T11:02:24;413.83;;;215.43;;
8407;SDS011;4241;48.452;9.216;2022-08-19T11:04:51;415.27;;;223.63;;
8407;SDS011;4241;48.452;9.216;2022-08-19T11:07:19;412.27;;;217.37;;
8407;SDS011;4241;48.452;9.216;2022-08-19T11:09:46;414.20;;;219.53;;
8407;SDS011;4241;48.452;9.216;2022-08-19T11:12:13;411.00;;;216.90;;
8407;SDS011;4241;48.452;9.216;2022-08-19T11:14:40;414.63;;;222.93;;
8407;SDS011;4241;48.452;9.216;2022-08-19T11:17:07;413.90;;;217.03;;
8407;SDS011;4241;48.452;9.216;2022-08-19T11:19:36;413.50;;;221.40;;
8407;SDS011;4241;48.452;9.216;2022-08-19T11:22:03;410.07;;;218.13;;
8407;SDS011;4241;48.452;9.216;2022-08-19T11:24:31;410.83;;;219.67;;
8407;SDS011;4241;48.452;9.216;2022-08-19T11:27:02;406.93;;;218.27;;
8407;SDS011;4241;48.452;9.216;2022-08-19T11:29:31;411.30;;;218.37;;
8407;SDS011;4241;48.452;9.216;2022-08-19T11:32:00;409.57;;;216.20;;
8407;SDS011;4241;48.452;9.216;2022-08-19T11:34:30;408.23;;;218.00;;
8407;SDS011;4241;48.452;9.216;2022-08-19T11:36:57;412.20;;;221.83;;
8407;SDS011;4241;48.452;9.216;2022-08-19T11:39:25;412.67;;;217.73;;
8407;SDS011;4241;48.452;9.216;2022-08-19T11:41:55;411.47;;;219.83;;
8407;SDS011;4241;48.452;9.216;2022-08-19T11:44:23;410.07;;;221.13;;
8407;SDS011;4241;48.452;9.216;2022-08-19T11:46:50;409.47;;;216.73;;
8407;SDS011;4241;48.452;9.216;2022-08-19T11:49:18;409.23;;;219.47;;
8407;SDS011;4241;48.452;9.216;2022-08-19T11:51:46;410.17;;;220.93;;
8407;SDS011;4241;48.452;9.216;2022-08-19T11:54:15;414.20;;;220.07;;
8407;SDS011;4241;48.452;9.216;2022-08-19T11:56:43;411.57;;;220.37;;
8407;SDS011;4241;48.452;9.216;2022-08-19T11:59:14;414.73;;;218.23;;
8407;SDS011;4241;48.452;9.216;2022-08-19T12:01:41;416.77;;;220.50;;
8407;SDS011;4241;48.452;9.216;2022-08-19T12:04:08;416.73;;;217.57;;
8407;SDS011;4241;48.452;9.216;2022-08-19T12:06:36;411.13;;;216.60;;
8407;SDS011;4241;48.452;9.216;2022-08-19T12:09:05;415.47;;;221.17;;
8407;SDS011;4241;48.452;9.216;2022-08-19T12:11:33;411.87;;;211.27;;
8407;SDS011;4241;48.452;9.216;2022-08-19T12:14:01;416.20;;;220.37;;
8407;SDS011;4241;48.452;9.216;2022-08-19T12:16:30;416.00;;;217.03;;
8407;SDS011;4241;48.452;9.216;2022-08-19T12:18:57;417.87;;;223.83;;
8407;SDS011;4241;48.452;9.216;2022-08-19T12:21:29;415.13;;;218.47;;
8407;SDS011;4241;48.452;9.216;2022-08-19T12:23:58;420.20;;;222.43;;
8407;SDS011;4241;48.452;9.216;2022-08-19T12:26:27;425.47;;;219.50;;
8407;SDS011;4241;48.452;9.216;2022-08-19T12:28:56;437.20;;;225.77;;
8407;SDS011;4241;48.452;9.216;2022-08-19T12:31:24;450.47;;;228.13;;
8407;SDS011;4241;48.452;9.216;2022-08-19T12:33:52;447.13;;;223.67;;
8407;SDS011;4241;48.452;9.216;2022-08-19T12:36:19;448.53;;;221.20;;
8407;SDS011;4241;48.452;9.216;2022-08-19T12:38:46;454.33;;;225.63;;
8407;SDS011;4241;48.452;9.216;2022-08-19T12:41:14;455.27;;;226.83;;
8407;SDS011;4241;48.452;9.216;2022-08-19T12:43:43;455.40;;;227.40;;
8407;SDS011;4241;48.452;9.216;2022-08-19T12:46:11;457.20;;;226.80;;
8407;SDS011;4241;48.452;9.216;2022-08-19T12:48:39;460.00;;;228.97;;
8407;SDS011;4241;48.452;9.216;2022-08-19T12:51:09;459.00;;;227.63;;
8407;SDS011;4241;48.452;9.216;2022-08-19T12:53:38;460.77;;;228.33;;
8407;SDS011;4241;48.452;9.216;2022-08-19T12:56:05;462.03;;;225.90;;
8407;SDS011;4241;48.452;9.216;2022-08-19T12:58:33;469.63;;;231.40;;
8407;SDS011;4241;48.452;9.216;2022-08-19T13:01:05;463.80;;;225.97;;
8407;SDS011;4241;48.452;9.216;2022-08-19T13:03:33;467.20;;;229.67;;
8407;SDS011;4241;48.452;9.216;2022-08-19T13:06:00;464.80;;;229.20;;
8407;SDS011;4241;48.452;9.216;2022-08-19T13:08:28;468.63;;;232.33;;
8407;SDS011;4241;48.452;9.216;2022-08-19T13:10:54;464.60;;;226.97;;
8407;SDS011;4241;48.452;9.216;2022-08-19T13:13:23;466.03;;;232.33;;
8407;SDS011;4241;48.452;9.216;2022-08-19T13:15:51;467.37;;;233.87;;
8407;SDS011;4241;48.452;9.216;2022-08-19T13:18:18;471.17;;;236.27;;
8407;SDS011;4241;48.452;9.216;2022-08-19T13:20:45;457.50;;;234.93;;
8407;SDS011;4241;48.452;9.216;2022-08-19T13:23:11;467.77;;;232.30;;
8407;SDS011;4241;48.452;9.216;2022-08-19T13:25:40;471.60;;;236.10;;
8407;SDS011;4241;48.452;9.216;2022-08-19T13:28:06;470.40;;;231.60;;
8407;SDS011;4241;48.452;9.216;2022-08-19T13:30:33;470.17;;;236.40;;
8407;SDS011;4241;48.452;9.216;2022-08-19T13:33:17;470.20;;;236.93;;
8407;SDS011;4241;48.452;9.216;2022-08-19T13:35:46;467.00;;;229.13;;
8407;SDS011;4241;48.452;9.216;2022-08-19T13:38:16;467.30;;;227.70;;
8407;SDS011;4241;48.452;9.216;2022-08-19T13:40:45;465.07;;;228.27;;
8407;SDS011;4241;48.452;9.216;2022-08-19T13:43:12;466.77;;;230.87;;
8407;SDS011;4241;48.452;9.216;2022-08-19T13:45:40;471.47;;;238.13;;
8407;SDS011;4241;48.452;9.216;2022-08-19T13:48:07;467.23;;;234.00;;
8407;SDS011;4241;48.452;9.216;2022-08-19T13:50:35;466.60;;;233.80;;
8407;SDS011;4241;48.452;9.216;2022-08-19T13:53:05;465.27;;;230.67;;
8407;SDS011;4241;48.452;9.216;2022-08-19T13:55:33;467.27;;;229.67;;
8407;SDS011;4241;48.452;9.216;2022-08-19T13:58:02;467.67;;;231.90;;
8407;SDS011;4241;48.452;9.216;2022-08-19T14:00:31;467.97;;;228.60;;
8407;SDS011;4241;48.452;9.216;2022-08-19T14:02:59;465.13;;;229.80;;
8407;SDS011;4241;48.452;9.216;2022-08-19T14:05:27;465.47;;;230.57;;
8407;SDS011;4241;48.452;9.216;2022-08-19T14:07:54;467.00;;;226.77;;
8407;SDS011;4241;48.452;9.216;2022-08-19T14:10:22;465.23;;;231.43;;
8407;SDS011;4241;48.452;9.216;2022-08-19T14:12:51;465.77;;;225.80;;
8407;SDS011;4241;48.452;9.216;2022-08-19T14:15:22;465.07;;;231.07;;
8407;SDS011;4241;48.452;9.216;2022-08-19T14:17:49;468.53;;;234.60;;
8407;SDS011;4241;48.452;9.216;2022-08-19T14:20:16;471.33;;;234.47;;
8407;SDS011;4241;48.452;9.216;2022-08-19T14:22:44;464.67;;;224.40;;
8407;SDS011;4241;48.452;9.216;2022-08-19T14:25:13;468.13;;;230.80;;
8407;SDS011;4241;48.452;9.216;2022-08-19T14:27:41;467.00;;;229.00;;
8407;SDS011;4241;48.452;9.216;2022-08-19T14:30:10;467.07;;;231.27;;
8407;SDS011;4241;48.452;9.216;2022-08-19T14:32:40;468.20;;;229.73;;